Time;durP1;ratioP1;P1;durP2;ratioP2;P2;SDS_P1;SDS_P2;PMS_P1;PMS_P2;Temp;Humidity;BMP_temperature;BMP_pressure;BME280_temperature;BME280_humidity;BME280_pressure;Samples;Min_cycle;Max_cycle;Signal;HPM_P1;HPM_P2
2020/12/17 00:00:30;;;;;;;6.45;5.13;;;11.00;99.90;;;;;;3609848;39;20264;-76
2020/12/17 00:02:56;;;;;;;13.93;5.82;;;11.00;99.90;;;;;;3610663;39;20275;-77
2020/12/17 00:05:25;;;;;;;7.13;5.07;;;11.10;99.90;;;;;;3610295;39;20284;-77
2020/12/17 00:07:51;;;;;;;8.38;5.60;;;11.10;99.90;;;;;;3613106;32;20248;-77
2020/12/17 00:10:18;;;;;;;9.20;6.03;;;11.10;99.90;;;;;;3612658;39;20272;-77
2020/12/17 00:12:47;;;;;;;8.55;5.60;;;11.10;99.90;;;;;;3611586;39;20761;-76
2020/12/17 00:15:15;;;;;;;12.13;5.00;;;11.10;99.90;;;;;;3611822;39;20240;-76
2020/12/17 00:17:42;;;;;;;10.43;5.13;;;11.20;99.90;;;;;;3611744;39;20836;-76
2020/12/17 00:20:09;;;;;;;5.97;4.95;;;11.10;99.90;;;;;;3611259;39;20367;-76
2020/12/17 00:22:36;;;;;;;7.60;5.50;;;11.10;99.90;;;;;;3610860;39;20244;-76
2020/12/17 00:25:05;;;;;;;6.47;5.00;;;11.10;99.90;;;;;;3611610;39;20303;-76
2020/12/17 00:27:31;;;;;;;7.75;5.38;;;11.10;99.90;;;;;;3615321;32;20360;-77
2020/12/17 00:29:59;;;;;;;10.73;9.57;;;11.10;99.90;;;;;;3611371;39;20279;-76
2020/12/17 00:32:25;;;;;;;7.18;5.70;;;11.10;99.90;;;;;;3611844;39;20352;-76
2020/12/17 00:34:52;;;;;;;8.93;5.35;;;11.10;99.90;;;;;;3611006;39;20396;-76
2020/12/17 00:37:18;;;;;;;10.98;6.20;;;11.10;99.90;;;;;;3611212;39;20348;-77
2020/12/17 00:39:45;;;;;;;6.85;5.65;;;11.20;99.90;;;;;;3611368;39;20317;-76
2020/12/17 00:42:11;;;;;;;10.23;5.50;;;11.20;99.90;;;;;;3615067;39;20267;-76
2020/12/17 00:44:38;;;;;;;10.25;5.45;;;11.20;99.90;;;;;;3616107;39;20235;-76
2020/12/17 00:47:05;;;;;;;7.90;5.75;;;11.10;99.90;;;;;;3613033;39;20359;-77
2020/12/17 00:49:32;;;;;;;10.40;5.45;;;11.10;99.90;;;;;;3611364;39;20356;-76
2020/12/17 00:51:59;;;;;;;7.38;5.40;;;11.10;99.90;;;;;;3614482;39;20329;-76
2020/12/17 00:54:26;;;;;;;8.52;5.10;;;11.10;99.90;;;;;;3612265;39;20360;-76
2020/12/17 00:56:53;;;;;;;9.60;6.43;;;11.10;99.90;;;;;;3613827;39;20685;-76
2020/12/17 00:59:19;;;;;;;7.57;4.97;;;11.00;99.90;;;;;;3612282;39;20267;-76
2020/12/17 01:01:46;;;;;;;6.32;4.93;;;11.00;99.90;;;;;;3611421;39;20278;-76
2020/12/17 01:04:13;;;;;;;9.80;5.07;;;11.00;99.90;;;;;;3615862;39;20290;-77
2020/12/17 01:06:39;;;;;;;7.03;4.97;;;11.00;99.90;;;;;;3625703;32;20348;-76
2020/12/17 01:09:06;;;;;;;5.95;4.60;;;10.90;99.90;;;;;;3612822;39;20252;-76
2020/12/17 01:11:33;;;;;;;6.28;4.30;;;10.90;99.90;;;;;;3611482;39;20695;-76
2020/12/17 01:13:59;;;;;;;5.32;4.78;;;10.90;99.90;;;;;;3611061;39;20278;-76
2020/12/17 01:16:26;;;;;;;9.05;5.47;;;10.90;99.90;;;;;;3612177;39;20233;-76
2020/12/17 01:18:52;;;;;;;6.70;4.75;;;10.90;99.90;;;;;;3610813;39;20295;-76
2020/12/17 01:21:20;;;;;;;7.63;5.00;;;11.00;99.90;;;;;;3611424;39;20252;-76
2020/12/17 01:23:47;;;;;;;6.40;4.78;;;11.00;99.90;;;;;;3611627;39;20329;-76
2020/12/17 01:26:13;;;;;;;7.93;4.68;;;11.10;99.90;;;;;;3610978;39;20270;-76
2020/12/17 01:28:42;;;;;;;7.32;4.95;;;11.10;99.90;;;;;;3611700;39;20256;-76
2020/12/17 01:31:09;;;;;;;6.03;4.63;;;11.10;99.90;;;;;;3611284;39;20269;-76
2020/12/17 01:33:36;;;;;;;8.63;5.45;;;11.10;99.90;;;;;;3610936;39;20241;-77
2020/12/17 01:36:04;;;;;;;6.45;4.97;;;11.10;99.90;;;;;;3610939;39;20293;-77
2020/12/17 01:38:32;;;;;;;8.05;5.30;;;11.00;99.90;;;;;;3610289;39;20260;-77
2020/12/17 01:40:58;;;;;;;7.57;5.22;;;11.10;99.90;;;;;;3610786;39;20788;-76
2020/12/17 01:43:25;;;;;;;7.10;4.78;;;11.10;99.90;;;;;;3615838;39;20260;-76
2020/12/17 01:45:52;;;;;;;6.75;4.72;;;11.10;99.90;;;;;;3616889;39;20261;-76
2020/12/17 01:48:19;;;;;;;7.07;4.78;;;11.10;99.90;;;;;;3613009;39;20244;-77
2020/12/17 01:50:47;;;;;;;5.00;4.50;;;11.20;99.90;;;;;;3615042;39;20352;-76
2020/12/17 01:53:14;;;;;;;8.35;5.20;;;11.20;99.90;;;;;;3613043;39;20349;-76
2020/12/17 01:55:42;;;;;;;5.68;4.63;;;11.20;99.90;;;;;;3610710;39;20787;-77
2020/12/17 01:58:13;;;;;;;5.82;5.25;;;11.20;99.90;;;;;;3612188;39;20264;-77
2020/12/17 02:00:41;;;;;;;8.60;5.75;;;11.20;99.90;;;;;;3611313;39;20288;-77
2020/12/17 02:03:08;;;;;;;6.70;4.97;;;11.20;99.90;;;;;;3615710;39;20340;-76
2020/12/17 02:05:34;;;;;;;7.97;4.47;;;11.10;99.90;;;;;;3610558;39;20290;-77
2020/12/17 02:08:01;;;;;;;6.10;4.65;;;11.10;99.90;;;;;;3612226;39;20260;-77
2020/12/17 02:10:29;;;;;;;6.95;4.82;;;11.10;99.90;;;;;;3610560;39;20384;-77
2020/12/17 02:12:56;;;;;;;7.72;5.35;;;11.10;99.90;;;;;;3613389;39;20267;-76
2020/12/17 02:15:23;;;;;;;5.13;4.63;;;11.10;99.90;;;;;;3612370;39;20356;-77
2020/12/17 02:17:50;;;;;;;4.82;4.32;;;11.10;99.90;;;;;;3616018;39;20278;-77
2020/12/17 02:20:16;;;;;;;7.65;4.20;;;11.10;99.90;;;;;;3611141;39;20295;-76
2020/12/17 02:22:43;;;;;;;8.93;4.72;;;11.10;99.90;;;;;;3616259;39;20268;-76
2020/12/17 02:25:12;;;;;;;5.75;4.57;;;11.10;99.90;;;;;;3614854;39;20355;-76
2020/12/17 02:27:39;;;;;;;5.40;4.50;;;11.10;99.90;;;;;;3612028;39;20279;-75
2020/12/17 02:30:07;;;;;;;6.30;4.57;;;11.10;99.90;;;;;;3612346;39;20795;-76
2020/12/17 02:32:34;;;;;;;7.05;4.70;;;11.10;99.90;;;;;;3610205;39;20400;-76
2020/12/17 02:35:00;;;;;;;5.22;4.10;;;11.10;99.90;;;;;;3611542;39;20278;-76
2020/12/17 02:37:27;;;;;;;5.97;3.97;;;11.10;99.90;;;;;;3610115;39;20264;-76
2020/12/17 02:39:54;;;;;;;6.88;4.10;;;11.20;99.90;;;;;;3610234;39;20846;-76
2020/12/17 02:42:21;;;;;;;8.30;3.90;;;11.20;99.90;;;;;;3610357;39;20632;-76
2020/12/17 02:44:48;;;;;;;8.25;4.78;;;11.20;99.90;;;;;;3610367;32;20302;-76
2020/12/17 02:47:14;;;;;;;12.80;4.43;;;11.20;99.90;;;;;;3610198;39;20294;-76
2020/12/17 02:49:40;;;;;;;7.07;4.97;;;11.10;99.90;;;;;;3610324;39;20278;-76
2020/12/17 02:52:07;;;;;;;7.63;4.53;;;11.20;99.90;;;;;;3613183;39;20263;-76
2020/12/17 02:54:34;;;;;;;5.30;4.68;;;11.10;99.90;;;;;;3610003;39;20251;-76
2020/12/17 02:57:00;;;;;;;6.82;4.65;;;11.20;99.90;;;;;;3610160;39;20256;-76
2020/12/17 02:59:28;;;;;;;5.57;4.47;;;11.20;99.90;;;;;;3612212;39;20255;-76
2020/12/17 03:01:54;;;;;;;5.20;4.07;;;11.20;99.90;;;;;;3610564;39;20306;-76
2020/12/17 03:04:21;;;;;;;8.80;4.30;;;11.30;99.90;;;;;;3609678;39;20348;-76
2020/12/17 03:06:47;;;;;;;7.05;4.32;;;11.30;99.90;;;;;;3613204;39;20247;-76
2020/12/17 03:09:14;;;;;;;4.90;3.85;;;11.30;99.90;;;;;;3609925;39;20284;-77
2020/12/17 03:11:40;;;;;;;7.38;4.13;;;11.30;99.90;;;;;;3611630;39;20275;-76
2020/12/17 03:14:07;;;;;;;8.25;4.00;;;11.30;99.90;;;;;;3611599;39;20268;-76
2020/12/17 03:16:34;;;;;;;9.07;4.68;;;11.20;99.90;;;;;;3609783;39;20753;-76
2020/12/17 03:19:01;;;;;;;7.47;4.30;;;11.20;99.90;;;;;;3613394;39;20264;-76
2020/12/17 03:21:28;;;;;;;4.65;4.25;;;11.20;99.90;;;;;;3614776;39;20247;-76
2020/12/17 03:23:55;;;;;;;7.25;4.82;;;11.10;99.90;;;;;;3610286;39;20244;-77
2020/12/17 03:26:21;;;;;;;5.88;4.72;;;11.10;99.90;;;;;;3610012;39;20280;-76
2020/12/17 03:28:48;;;;;;;7.15;4.53;;;11.10;99.90;;;;;;3614577;39;20256;-76
2020/12/17 03:31:16;;;;;;;6.43;4.50;;;11.10;99.90;;;;;;3610256;39;20282;-76
2020/12/17 03:33:43;;;;;;;5.90;3.92;;;11.10;99.90;;;;;;3609666;39;20355;-77
2020/12/17 03:36:09;;;;;;;6.30;4.72;;;11.10;99.90;;;;;;3609901;39;20368;-77
2020/12/17 03:38:36;;;;;;;6.70;4.18;;;11.10;99.90;;;;;;3611991;39;20265;-77
2020/12/17 03:41:02;;;;;;;5.50;4.20;;;11.10;99.90;;;;;;3610461;39;20329;-76
2020/12/17 03:43:29;;;;;;;6.18;3.78;;;11.10;99.90;;;;;;3627231;32;20259;-77
2020/12/17 03:45:55;;;;;;;8.05;4.65;;;11.10;99.90;;;;;;3611524;39;20262;-76
2020/12/17 03:48:22;;;;;;;8.73;4.78;;;11.10;99.90;;;;;;3611550;39;20244;-77
2020/12/17 03:50:49;;;;;;;6.78;5.00;;;11.10;99.90;;;;;;3611385;39;20248;-76
2020/12/17 03:53:15;;;;;;;5.72;4.47;;;11.10;99.90;;;;;;3611616;39;20260;-75
2020/12/17 03:55:42;;;;;;;7.13;4.68;;;11.20;99.90;;;;;;3614483;39;20290;-76
2020/12/17 03:58:08;;;;;;;8.57;4.00;;;11.20;99.90;;;;;;3611937;39;20252;-76
2020/12/17 04:00:35;;;;;;;4.30;3.88;;;11.20;99.90;;;;;;3611440;39;20286;-76
2020/12/17 04:03:01;;;;;;;7.05;4.57;;;11.20;99.90;;;;;;3611668;39;20255;-76
2020/12/17 04:05:30;;;;;;;6.10;3.90;;;11.20;99.90;;;;;;3629493;32;20356;-76
2020/12/17 04:07:57;;;;;;;8.25;4.57;;;11.30;99.90;;;;;;3611821;39;20388;-76
2020/12/17 04:10:23;;;;;;;8.55;4.20;;;11.30;99.90;;;;;;3611527;39;20404;-76
2020/12/17 04:12:50;;;;;;;6.45;4.18;;;11.20;99.90;;;;;;3611812;39;20260;-76
2020/12/17 04:15:16;;;;;;;6.50;4.38;;;11.20;99.90;;;;;;3611528;39;20284;-76
2020/12/17 04:17:43;;;;;;;8.80;4.40;;;11.20;99.90;;;;;;3613902;39;20277;-76
2020/12/17 04:20:09;;;;;;;6.35;3.97;;;11.20;99.90;;;;;;3611472;39;20350;-76
2020/12/17 04:22:36;;;;;;;9.27;4.47;;;11.20;99.90;;;;;;3611754;39;20368;-76
2020/12/17 04:25:03;;;;;;;5.85;4.35;;;11.20;99.90;;;;;;3614389;39;20287;-76
2020/12/17 04:27:30;;;;;;;5.18;4.68;;;11.20;99.90;;;;;;3611230;39;20777;-76
2020/12/17 04:29:56;;;;;;;6.70;4.40;;;11.20;99.90;;;;;;3611261;39;20298;-76
2020/12/17 04:32:23;;;;;;;5.93;4.70;;;11.20;99.90;;;;;;3611345;39;20258;-76
2020/12/17 04:34:49;;;;;;;6.10;4.15;;;11.10;99.90;;;;;;3614577;39;20256;-76
2020/12/17 04:37:16;;;;;;;4.97;4.00;;;11.10;99.90;;;;;;3610822;39;20256;-76
2020/12/17 04:39:42;;;;;;;7.47;4.72;;;11.00;99.90;;;;;;3611078;39;20260;-76
2020/12/17 04:42:12;;;;;;;6.65;5.03;;;11.10;99.90;;;;;;3610817;39;20260;-76
2020/12/17 04:44:39;;;;;;;6.07;5.03;;;11.00;99.90;;;;;;3611064;39;20251;-76
2020/12/17 04:47:06;;;;;;;6.65;4.40;;;11.00;99.90;;;;;;3611297;39;20259;-76
2020/12/17 04:49:37;;;;;;;7.78;4.88;;;11.00;99.90;;;;;;3611312;39;20264;-76
2020/12/17 04:52:04;;;;;;;6.30;4.13;;;11.00;99.90;;;;;;3611348;39;20256;-76
2020/12/17 04:54:32;;;;;;;6.32;4.60;;;11.10;99.90;;;;;;3613652;39;20339;-76
2020/12/17 04:57:07;;;;;;;4.82;4.22;;;11.10;99.90;;;;;;3612603;39;20282;-77
2020/12/17 04:59:47;;;;;;;5.80;4.65;;;11.10;99.90;;;;;;3614337;39;20244;-76
2020/12/17 05:02:15;;;;;;;5.78;4.15;;;11.10;99.90;;;;;;3611962;39;20272;-76
2020/12/17 05:04:43;;;;;;;9.75;5.13;;;11.10;99.90;;;;;;3611510;39;20276;-76
2020/12/17 05:07:11;;;;;;;7.90;4.78;;;11.00;99.90;;;;;;3611284;39;20348;-76
2020/12/17 05:09:39;;;;;;;6.80;4.95;;;11.10;99.90;;;;;;3613888;39;20248;-76
2020/12/17 05:12:06;;;;;;;8.10;4.68;;;11.10;99.90;;;;;;3613743;39;20947;-76
2020/12/17 05:14:33;;;;;;;6.35;4.28;;;11.10;99.90;;;;;;3615302;39;20256;-76
2020/12/17 05:17:00;;;;;;;10.10;4.68;;;11.10;99.90;;;;;;3614439;39;20259;-76
2020/12/17 05:19:27;;;;;;;8.38;4.70;;;11.20;99.90;;;;;;3610824;39;20260;-76
2020/12/17 05:21:55;;;;;;;8.52;4.72;;;11.10;99.90;;;;;;3610374;39;20710;-76
2020/12/17 05:24:22;;;;;;;5.95;5.35;;;11.10;99.90;;;;;;3611418;39;20272;-76
2020/12/17 05:26:49;;;;;;;6.55;5.13;;;11.10;99.90;;;;;;3610626;39;20248;-76
2020/12/17 05:29:17;;;;;;;8.45;5.45;;;11.10;99.90;;;;;;3611837;39;20266;-76
2020/12/17 05:31:43;;;;;;;9.35;5.25;;;11.10;99.90;;;;;;3610341;39;20282;-76
2020/12/17 05:34:11;;;;;;;11.48;5.60;;;11.10;99.90;;;;;;3613979;39;20253;-76
2020/12/17 05:36:39;;;;;;;8.30;5.60;;;11.10;99.90;;;;;;3610687;39;20280;-76
2020/12/17 05:39:12;;;;;;;5.35;4.57;;;11.00;99.90;;;;;;3610523;39;22727;-76
2020/12/17 05:41:39;;;;;;;6.60;4.68;;;11.00;99.90;;;;;;3614023;39;21305;-76
2020/12/17 05:44:15;;;;;;;7.15;5.35;;;11.00;99.90;;;;;;3616581;39;20351;-76
2020/12/17 05:46:43;;;;;;;5.78;5.03;;;11.00;99.90;;;;;;3610066;39;20255;-76
2020/12/17 05:49:19;;;;;;;7.20;5.72;;;10.90;99.90;;;;;;3612441;32;20252;-76
2020/12/17 05:51:46;;;;;;;5.72;4.78;;;10.90;99.90;;;;;;3612315;39;20371;-76
2020/12/17 05:54:22;;;;;;;6.57;5.25;;;10.90;99.90;;;;;;3610473;39;20280;-76
2020/12/17 05:56:50;;;;;;;8.65;5.57;;;10.90;99.90;;;;;;3612466;39;20266;-76
2020/12/17 05:59:22;;;;;;;10.50;5.97;;;11.00;99.90;;;;;;3611535;39;20341;-76
2020/12/17 06:01:49;;;;;;;9.00;6.00;;;10.90;99.90;;;;;;3615477;39;20240;-77
2020/12/17 06:04:17;;;;;;;7.70;4.95;;;10.90;99.90;;;;;;3614529;39;20672;-77
2020/12/17 06:06:46;;;;;;;11.90;5.82;;;10.90;99.90;;;;;;3612463;39;20259;-76
2020/12/17 06:09:20;;;;;;;6.78;6.00;;;10.90;99.90;;;;;;3612603;39;20626;-77
2020/12/17 06:11:49;;;;;;;8.90;6.28;;;10.80;99.90;;;;;;3626620;32;20272;-76
2020/12/17 06:14:20;;;;;;;12.57;6.32;;;10.80;99.90;;;;;;3611965;39;20278;-77
2020/12/17 06:16:52;;;;;;;8.98;6.28;;;10.80;99.90;;;;;;3614040;39;20286;-77
2020/12/17 06:19:21;;;;;;;11.18;6.03;;;10.80;99.90;;;;;;3613696;39;20270;-76
2020/12/17 06:21:48;;;;;;;8.40;6.00;;;10.70;99.90;;;;;;3610543;39;20236;-76
2020/12/17 06:24:18;;;;;;;10.40;6.38;;;10.60;99.90;;;;;;3626009;32;20279;-77
2020/12/17 06:26:51;;;;;;;11.63;6.57;;;10.60;99.90;;;;;;3615857;39;20255;-77
2020/12/17 06:29:21;;;;;;;11.32;5.82;;;10.60;99.90;;;;;;3610496;39;20270;-77
2020/12/17 06:31:55;;;;;;;12.70;6.03;;;10.60;99.90;;;;;;3609919;39;20288;-77
2020/12/17 06:34:23;;;;;;;11.07;6.40;;;10.60;99.90;;;;;;3613017;39;20274;-77
2020/12/17 06:36:57;;;;;;;11.13;6.90;;;10.60;99.90;;;;;;3610674;39;20381;-78
2020/12/17 06:39:24;;;;;;;10.07;7.18;;;10.50;99.90;;;;;;3615295;39;20255;-77
2020/12/17 06:41:51;;;;;;;8.82;6.88;;;10.50;99.90;;;;;;3610587;39;20322;-77
2020/12/17 06:44:28;;;;;;;11.02;6.95;;;10.50;99.90;;;;;;3610498;39;20689;-77
2020/12/17 06:46:55;;;;;;;8.95;6.20;;;10.60;99.90;;;;;;3610381;39;20248;-77
2020/12/17 06:49:27;;;;;;;10.55;7.65;;;10.60;99.90;;;;;;3610793;39;20290;-77
2020/12/17 06:52:05;;;;;;;11.55;7.75;;;10.60;99.90;;;;;;3610856;39;20348;-77
2020/12/17 06:54:39;;;;;;;10.70;7.32;;;10.60;99.90;;;;;;3612318;39;20304;-77
2020/12/17 06:57:08;;;;;;;14.30;8.35;;;10.50;99.90;;;;;;3610380;39;20295;-76
2020/12/17 06:59:35;;;;;;;13.85;7.90;;;10.50;99.90;;;;;;3613743;39;20881;-76
2020/12/17 07:02:02;;;;;;;15.15;9.40;;;10.30;99.90;;;;;;3615661;39;20247;-77
2020/12/17 07:04:41;;;;;;;15.93;7.55;;;10.40;99.90;;;;;;3611175;39;20298;-77
2020/12/17 07:07:16;;;;;;;12.27;7.60;;;10.30;99.90;;;;;;3610360;39;20252;-77
2020/12/17 07:09:43;;;;;;;11.98;7.15;;;10.30;99.90;;;;;;3610721;39;20337;-76
2020/12/17 07:12:12;;;;;;;14.07;7.28;;;10.20;99.90;;;;;;3610235;39;20290;-76
2020/12/17 07:14:41;;;;;;;14.98;7.43;;;10.20;99.90;;;;;;3610019;39;20271;-76
2020/12/17 07:17:09;;;;;;;11.80;7.57;;;10.20;99.90;;;;;;3613725;39;20239;-76
2020/12/17 07:19:41;;;;;;;11.05;8.43;;;10.30;99.90;;;;;;3619552;32;20260;-76
2020/12/17 07:22:10;;;;;;;17.17;8.13;;;10.30;99.90;;;;;;3620110;39;20264;-77
2020/12/17 07:24:39;;;;;;;12.10;7.63;;;10.30;99.90;;;;;;3616443;39;20263;-77
2020/12/17 07:27:09;;;;;;;10.68;7.80;;;10.30;99.90;;;;;;3616905;39;20260;-78
2020/12/17 07:29:50;;;;;;;15.95;9.00;;;10.30;99.90;;;;;;3645794;32;20690;-77
2020/12/17 07:32:44;;;;;;;11.82;7.85;;;10.20;99.90;;;;;;3612079;39;20329;-77
2020/12/17 07:35:22;;;;;;;11.52;7.57;;;10.20;99.90;;;;;;3613079;39;20248;-77
2020/12/17 07:37:54;;;;;;;10.80;7.20;;;10.20;99.90;;;;;;3613732;39;20266;-77
2020/12/17 07:40:29;;;;;;;9.20;7.10;;;10.20;99.90;;;;;;3612872;39;20399;-78
2020/12/17 07:43:04;;;;;;;11.23;6.38;;;10.20;99.90;;;;;;3613438;39;20251;-77
2020/12/17 07:45:50;;;;;;;12.32;6.25;;;10.20;99.90;;;;;;3619149;39;20379;-78
2020/12/17 07:48:47;;;;;;;11.23;5.57;;;10.20;99.90;;;;;;3613514;39;20329;-78
2020/12/17 07:51:34;;;;;;;9.15;7.10;;;10.20;99.90;;;;;;3586819;40;20288;-77
2020/12/17 07:54:06;;;;;;;6.43;5.35;;;10.10;99.90;;;;;;3583000;40;20365;-77
2020/12/17 07:56:33;;;;;;;8.90;5.57;;;10.10;99.90;;;;;;3586849;40;20273;-78
2020/12/17 07:59:04;;;;;;;6.15;4.80;;;10.20;99.90;;;;;;3591379;40;20244;-77
2020/12/17 08:01:31;;;;;;;5.22;4.72;;;10.20;99.90;;;;;;3589238;32;20331;-78
2020/12/17 08:03:58;;;;;;;6.80;5.20;;;10.20;99.90;;;;;;3583013;40;20253;-78
2020/12/17 08:06:26;;;;;;;9.75;5.40;;;10.20;99.90;;;;;;3588010;40;20250;-78
2020/12/17 08:08:55;;;;;;;7.85;4.68;;;10.20;99.90;;;;;;3589863;40;20929;-78
2020/12/17 08:11:22;;;;;;;4.78;4.32;;;10.20;99.90;;;;;;3589660;40;20339;-78
2020/12/17 08:13:56;;;;;;;4.78;3.83;;;10.20;99.90;;;;;;3588752;40;20264;-78
2020/12/17 08:16:23;;;;;;;5.47;3.92;;;10.10;99.90;;;;;;3588510;40;20302;-78
2020/12/17 08:18:54;;;;;;;8.50;4.47;;;10.10;99.90;;;;;;3583082;40;20841;-78
2020/12/17 08:21:21;;;;;;;7.57;4.45;;;10.10;99.90;;;;;;3587857;40;20253;-78
2020/12/17 08:23:49;;;;;;;8.25;5.05;;;10.10;99.90;;;;;;3585508;40;20341;-77
2020/12/17 08:26:20;;;;;;;5.05;4.15;;;10.10;99.90;;;;;;3642245;32;20359;-78
2020/12/17 08:28:48;;;;;;;6.25;4.72;;;10.10;99.90;;;;;;3614236;39;20264;-78
2020/12/17 08:31:16;;;;;;;6.88;5.05;;;10.10;99.90;;;;;;3616202;39;20624;-78
2020/12/17 08:33:44;;;;;;;4.57;4.22;;;10.10;99.90;;;;;;3618311;39;20240;-78
2020/12/17 08:36:12;;;;;;;4.80;3.88;;;10.10;99.90;;;;;;3618500;39;20260;-78
2020/12/17 08:38:40;;;;;;;4.68;3.95;;;10.10;99.90;;;;;;3617958;39;20244;-78
2020/12/17 08:41:09;;;;;;;5.72;3.60;;;10.20;99.90;;;;;;3617794;39;20279;-78
2020/12/17 08:43:46;;;;;;;5.28;3.72;;;10.20;99.90;;;;;;3616378;39;20264;-78
2020/12/17 08:46:15;;;;;;;5.20;4.28;;;10.20;99.90;;;;;;3616491;39;20377;-78
2020/12/17 08:48:43;;;;;;;4.68;4.28;;;10.20;99.90;;;;;;3615946;39;20326;-78
2020/12/17 08:51:12;;;;;;;7.53;4.70;;;10.30;99.90;;;;;;3618834;39;20244;-78
2020/12/17 08:53:43;;;;;;;4.60;4.18;;;10.30;99.90;;;;;;3631225;31;20256;-78
2020/12/17 08:56:13;;;;;;;3.65;3.35;;;10.30;99.90;;;;;;3614796;39;20682;-78
2020/12/17 08:58:48;;;;;;;4.38;3.65;;;10.30;99.90;;;;;;3613709;39;20832;-78
2020/12/17 09:01:16;;;;;;;4.70;3.63;;;10.40;99.90;;;;;;3615586;39;20279;-78
2020/12/17 09:03:43;;;;;;;4.28;3.78;;;10.40;99.90;;;;;;3614265;39;20263;-78
2020/12/17 09:06:10;;;;;;;5.18;2.95;;;10.40;99.90;;;;;;3613399;39;20264;-78
2020/12/17 09:08:36;;;;;;;5.18;3.33;;;10.50;99.90;;;;;;3629540;32;20280;-78
2020/12/17 09:11:03;;;;;;;2.55;2.35;;;10.60;99.90;;;;;;3615738;39;20324;-78
2020/12/17 09:13:30;;;;;;;5.00;2.33;;;10.60;99.90;;;;;;3617492;32;20278;-78
2020/12/17 09:15:59;;;;;;;5.60;2.70;;;10.60;99.90;;;;;;3616279;39;20255;-78
2020/12/17 09:18:27;;;;;;;3.95;2.42;;;10.70;99.90;;;;;;3613519;39;20244;-78
2020/12/17 09:21:07;;;;;;;2.70;2.50;;;10.80;99.90;;;;;;3618852;39;20267;-78
2020/12/17 09:23:34;;;;;;;4.78;2.38;;;10.70;99.90;;;;;;3619532;39;20275;-78
2020/12/17 09:26:14;;;;;;;2.13;2.00;;;10.80;99.90;;;;;;3616871;39;20256;-78
2020/12/17 09:28:58;;;;;;;3.92;2.00;;;10.80;99.90;;;;;;3616078;39;20251;-78
2020/12/17 09:31:35;;;;;;;3.78;2.67;;;10.70;99.90;;;;;;3613691;39;20296;-78
2020/12/17 09:34:07;;;;;;;3.47;2.08;;;10.80;99.90;;;;;;3613466;39;20287;-78
2020/12/17 09:36:33;;;;;;;2.78;1.85;;;10.80;99.90;;;;;;3613322;39;20279;-78
2020/12/17 09:39:01;;;;;;;2.17;1.88;;;10.80;99.90;;;;;;3615183;39;20240;-78
2020/12/17 09:41:28;;;;;;;1.92;1.70;;;10.80;99.90;;;;;;3613959;39;20240;-78
2020/12/17 09:43:54;;;;;;;4.03;1.70;;;10.90;99.90;;;;;;3612916;39;20343;-78
2020/12/17 09:46:21;;;;;;;2.05;1.60;;;10.90;99.90;;;;;;3613241;39;20726;-78
2020/12/17 09:48:49;;;;;;;3.90;1.63;;;10.90;99.90;;;;;;3618307;39;20251;-78
2020/12/17 09:51:20;;;;;;;4.15;1.80;;;11.00;99.90;;;;;;3616016;39;20255;-78
2020/12/17 09:53:48;;;;;;;1.70;1.60;;;10.90;99.90;;;;;;3613402;39;20260;-78
2020/12/17 09:56:16;;;;;;;1.70;1.58;;;10.90;99.90;;;;;;3611730;39;20236;-78
2020/12/17 09:58:44;;;;;;;6.03;1.55;;;10.90;99.90;;;;;;3615366;39;20264;-79
2020/12/17 10:01:11;;;;;;;3.67;2.45;;;10.90;99.90;;;;;;3618324;39;20345;-78
2020/12/17 10:03:38;;;;;;;6.20;2.95;;;10.90;99.90;;;;;;3612586;39;20346;-77
2020/12/17 10:06:06;;;;;;;13.32;3.22;;;10.90;99.90;;;;;;3612827;39;20355;-78
2020/12/17 10:08:32;;;;;;;5.22;2.05;;;10.90;99.90;;;;;;3612522;39;20252;-78
2020/12/17 10:10:59;;;;;;;1.75;1.65;;;11.00;99.90;;;;;;3616947;39;20263;-77
2020/12/17 10:13:26;;;;;;;3.67;1.80;;;10.90;99.90;;;;;;3615816;39;20267;-77
2020/12/17 10:15:52;;;;;;;5.55;1.67;;;10.90;99.90;;;;;;3615116;39;20252;-78
2020/12/17 10:18:19;;;;;;;2.45;1.88;;;10.90;99.90;;;;;;3618783;39;20264;-78
2020/12/17 10:20:46;;;;;;;2.55;1.85;;;10.90;99.90;;;;;;3611541;39;20252;-77
2020/12/17 10:23:13;;;;;;;6.95;2.72;;;10.90;99.90;;;;;;3614103;39;20245;-78
2020/12/17 10:25:40;;;;;;;2.15;2.05;;;10.80;99.90;;;;;;3612801;39;20264;-78
2020/12/17 10:28:06;;;;;;;2.78;2.15;;;10.80;99.90;;;;;;3612204;39;20306;-78
2020/12/17 10:30:33;;;;;;;2.38;2.17;;;10.80;99.90;;;;;;3612818;39;20812;-78
2020/12/17 10:32:59;;;;;;;2.42;1.98;;;10.70;99.90;;;;;;3614566;39;20286;-78
2020/12/17 10:35:26;;;;;;;2.72;1.35;;;10.70;99.90;;;;;;3612734;39;20274;-78
2020/12/17 10:37:53;;;;;;;5.32;1.88;;;10.70;99.90;;;;;;3613993;39;20380;-77
2020/12/17 10:40:20;;;;;;;1.83;1.50;;;10.70;99.90;;;;;;3616169;39;20360;-78
2020/12/17 10:42:46;;;;;;;2.15;1.95;;;10.60;99.90;;;;;;3614043;39;20313;-78
2020/12/17 10:45:13;;;;;;;3.67;1.77;;;10.70;99.90;;;;;;3615657;39;20252;-78
2020/12/17 10:47:39;;;;;;;2.65;1.65;;;10.70;99.90;;;;;;3615134;39;20288;-78
2020/12/17 10:50:07;;;;;;;3.55;1.70;;;10.80;99.90;;;;;;3615151;39;20413;-78
2020/12/17 10:52:34;;;;;;;1.85;1.75;;;10.90;99.90;;;;;;3616337;39;20280;-78
2020/12/17 10:55:00;;;;;;;3.13;1.67;;;10.90;99.90;;;;;;3617330;39;20248;-78
2020/12/17 10:57:28;;;;;;;3.03;1.98;;;10.90;99.90;;;;;;3614225;39;20347;-78
2020/12/17 10:59:54;;;;;;;3.78;2.58;;;10.90;99.90;;;;;;3616772;39;20286;-77
2020/12/17 11:18:04;;;;;;;1.95;1.73;;;11.30;99.90;;;;;;3633146;39;20384;-79
2020/12/17 11:20:39;;;;;;;1.85;1.48;;;11.30;99.90;;;;;;3633950;39;20255;-79
2020/12/17 11:23:16;;;;;;;3.35;1.70;;;11.50;99.90;;;;;;3636632;39;20255;-80
2020/12/17 11:26:03;;;;;;;2.25;1.88;;;11.50;99.90;;;;;;3641019;39;20352;-79
2020/12/17 11:28:30;;;;;;;1.90;1.80;;;11.50;99.90;;;;;;3636103;39;20250;-79
2020/12/17 11:30:58;;;;;;;4.55;2.00;;;11.40;99.90;;;;;;3634547;39;20339;-79
2020/12/17 11:33:26;;;;;;;3.72;2.10;;;11.30;99.90;;;;;;3636389;39;20316;-79
2020/12/17 11:36:07;;;;;;;3.30;1.80;;;11.40;99.90;;;;;;3633465;39;20268;-79
2020/12/17 11:38:53;;;;;;;3.70;1.90;;;11.40;99.90;;;;;;3635739;39;20271;-80
2020/12/17 11:41:21;;;;;;;2.75;2.05;;;11.40;99.90;;;;;;3642815;39;20258;-80
2020/12/17 11:44:09;;;;;;;3.65;2.13;;;11.40;99.90;;;;;;3638639;39;20231;-79
2020/12/17 11:46:43;;;;;;;4.82;1.70;;;11.50;99.90;;;;;;3639016;39;20256;-78
2020/12/17 11:49:26;;;;;;;1.73;1.42;;;11.50;99.90;;;;;;3635098;39;20278;-79
2020/12/17 11:52:01;;;;;;;5.93;2.00;;;11.60;99.90;;;;;;3635494;39;20269;-79
2020/12/17 11:54:48;;;;;;;3.33;2.17;;;11.50;99.90;;;;;;3690405;31;20230;-80
2020/12/17 11:57:14;;;;;;;5.63;2.05;;;11.50;99.90;;;;;;3637815;39;20287;-79
2020/12/17 11:59:41;;;;;;;4.88;1.73;;;11.40;99.90;;;;;;3642899;39;20247;-79
2020/12/17 12:02:07;;;;;;;1.98;1.85;;;11.50;99.90;;;;;;3644421;31;20418;-79
2020/12/17 12:04:55;;;;;;;1.88;1.77;;;11.50;99.90;;;;;;3635999;39;20273;-79
2020/12/17 12:07:23;;;;;;;4.85;2.15;;;11.40;99.90;;;;;;3664881;31;20297;-78
2020/12/17 12:09:50;;;;;;;2.17;1.67;;;11.50;99.90;;;;;;3636371;39;20298;-79
2020/12/17 12:12:17;;;;;;;2.88;2.15;;;11.40;99.90;;;;;;3634494;31;20240;-79
2020/12/17 12:15:03;;;;;;;2.08;1.98;;;11.30;99.90;;;;;;3629625;39;20304;-79
2020/12/17 12:17:38;;;;;;;7.68;1.92;;;11.40;99.90;;;;;;3624824;39;20358;-77
2020/12/17 12:20:20;;;;;;;3.67;1.85;;;11.40;99.90;;;;;;3623680;39;20384;-77
2020/12/17 12:23:26;;;;;;;3.60;2.17;;;11.40;99.90;;;;;;3625734;39;20384;-77
2020/12/17 12:26:29;;;;;;;4.78;2.28;;;11.40;99.90;;;;;;3627021;39;20293;-77
2020/12/17 12:29:15;;;;;;;3.97;1.80;;;11.50;99.90;;;;;;3628085;39;20642;-77
2020/12/17 12:31:42;;;;;;;4.50;2.30;;;11.60;99.90;;;;;;3625887;31;20718;-77
2020/12/17 12:34:08;;;;;;;6.15;2.33;;;11.60;99.90;;;;;;3625035;39;20256;-77
2020/12/17 12:36:35;;;;;;;7.32;2.15;;;11.70;99.90;;;;;;3647585;31;20280;-77
2020/12/17 12:39:23;;;;;;;2.70;1.77;;;11.80;99.90;;;;;;3626337;39;20281;-77
2020/12/17 12:41:51;;;;;;;3.10;2.67;;;11.80;99.90;;;;;;3629399;39;20364;-80
2020/12/17 12:47:19;;;;;;;3.75;1.55;;;11.90;99.90;;;;;;3627742;32;20263;-79
2020/12/17 12:49:53;;;;;;;2.63;2.22;;;11.90;99.90;;;;;;3625977;39;20232;-78
2020/12/17 12:52:21;;;;;;;3.10;2.50;;;11.80;99.90;;;;;;3626895;39;20291;-79
2020/12/17 12:54:47;;;;;;;6.72;2.15;;;11.80;99.90;;;;;;3626098;39;20286;-79
2020/12/17 12:57:14;;;;;;;3.08;1.73;;;11.70;99.90;;;;;;3625650;39;20331;-80
2020/12/17 12:59:40;;;;;;;4.88;2.88;;;11.60;99.90;;;;;;3620970;39;20332;-77
2020/12/17 13:02:07;;;;;;;2.97;2.50;;;11.70;99.90;;;;;;3626565;39;20239;-77
2020/12/17 13:04:54;;;;;;;5.18;2.10;;;11.70;99.90;;;;;;3627803;32;20388;-79
2020/12/17 13:07:25;;;;;;;4.20;1.83;;;11.70;99.90;;;;;;3630398;39;20286;-78
2020/12/17 13:10:12;;;;;;;3.90;2.00;;;11.60;99.90;;;;;;3628050;39;20328;-78
2020/12/17 13:12:46;;;;;;;5.45;2.38;;;11.60;99.90;;;;;;3627397;39;20329;-79
2020/12/17 13:15:12;;;;;;;5.57;2.63;;;11.60;99.90;;;;;;3626490;39;20263;-77